createdAt,value
2023-10-20T00:02:31.766Z,7.10
2023-10-20T00:06:44.321Z,6.93
2023-10-20T00:11:06.709Z,6.90
2023-10-20T00:15:21.349Z,7.93
2023-10-20T00:19:33.934Z,7.10
2023-10-20T00:23:46.814Z,7.13
2023-10-20T00:27:59.544Z,7.50
2023-10-20T00:32:12.624Z,7.80
2023-10-20T00:36:25.363Z,6.80
2023-10-20T00:40:38.322Z,7.50
2023-10-20T00:44:50.853Z,7.07
2023-10-20T00:49:04.857Z,6.82
2023-10-20T00:53:19.351Z,7.80
2023-10-20T00:57:32.912Z,7.50
2023-10-20T01:01:45.411Z,7.47
2023-10-20T01:05:58.763Z,7.00
2023-10-20T01:10:11.356Z,7.63
2023-10-20T01:14:23.907Z,7.63
2023-10-20T01:18:36.461Z,7.45
2023-10-20T01:22:49.032Z,6.93
2023-10-20T01:27:01.569Z,8.10
2023-10-20T01:31:14.679Z,8.38
2023-10-20T01:35:27.862Z,7.80
2023-10-20T01:39:40.912Z,8.70
2023-10-20T01:43:53.842Z,7.90
2023-10-20T01:48:06.936Z,8.77
2023-10-20T01:52:19.571Z,8.40
2023-10-20T01:56:32.150Z,9.90
2023-10-20T02:00:46.129Z,8.63
2023-10-20T02:04:58.711Z,8.95
2023-10-20T02:09:11.824Z,10.00
2023-10-20T02:13:25.833Z,9.30
2023-10-20T02:17:38.857Z,8.43
2023-10-20T02:21:53.081Z,9.48
2023-10-20T02:26:08.308Z,8.20
2023-10-20T02:30:21.009Z,9.82
2023-10-20T02:34:34.222Z,9.70
2023-10-20T02:38:48.890Z,9.27
2023-10-20T02:43:01.454Z,9.52
2023-10-20T02:47:13.929Z,10.23
2023-10-20T02:51:26.597Z,9.85
2023-10-20T02:55:40.318Z,9.15
2023-10-20T02:59:52.786Z,9.38
2023-10-20T03:04:05.541Z,10.43
2023-10-20T03:08:19.353Z,9.20
2023-10-20T03:12:31.846Z,9.60
2023-10-20T03:16:47.338Z,8.38
2023-10-20T03:21:04.028Z,9.00
2023-10-20T03:25:16.813Z,10.27
2023-10-20T03:29:29.450Z,9.38
2023-10-20T03:33:42.607Z,9.57
2023-10-20T03:37:56.476Z,10.10
2023-10-20T03:42:09.236Z,10.52
2023-10-20T03:46:21.936Z,9.95
2023-10-20T03:50:37.877Z,9.98
2023-10-20T03:54:50.716Z,9.70
2023-10-20T03:59:03.734Z,9.35
2023-10-20T04:03:16.323Z,10.82
2023-10-20T04:07:29.165Z,9.90
2023-10-20T04:11:41.717Z,10.60
2023-10-20T04:15:57.326Z,9.77
2023-10-20T04:20:17.628Z,10.43
2023-10-20T04:24:30.256Z,10.88
2023-10-20T04:28:45.574Z,10.68
2023-10-20T04:33:16.648Z,9.98
2023-10-20T04:37:47.986Z,8.95
2023-10-20T04:42:18.981Z,9.15
2023-10-20T04:46:34.106Z,11.85
2023-10-20T04:51:11.322Z,10.55
2023-10-20T04:55:43.801Z,9.98
2023-10-20T05:00:22.311Z,9.93
2023-10-20T05:04:44.014Z,12.63
2023-10-20T05:08:56.866Z,11.48
2023-10-20T05:13:09.371Z,12.60
2023-10-20T05:17:23.014Z,11.98
2023-10-20T05:21:35.709Z,11.40
2023-10-20T05:25:51.556Z,10.32
2023-10-20T05:30:13.292Z,10.68
2023-10-20T05:34:25.828Z,12.85
2023-10-20T05:38:38.477Z,12.32
2023-10-20T05:42:51.096Z,10.95
2023-10-20T05:47:03.627Z,12.70
2023-10-20T05:51:16.343Z,12.95
2023-10-20T05:55:28.863Z,10.32
2023-10-20T05:59:42.725Z,11.55
2023-10-20T06:03:55.317Z,11.05
2023-10-20T06:08:08.398Z,12.77
2023-10-20T06:12:20.928Z,11.60
2023-10-20T06:16:34.189Z,11.55
2023-10-20T06:20:46.759Z,11.55
2023-10-20T06:25:01.133Z,11.65
2023-10-20T06:29:22.845Z,11.73
2023-10-20T06:33:35.459Z,10.98
2023-10-20T06:37:54.008Z,10.80
2023-10-20T06:42:08.545Z,12.00
2023-10-20T06:46:23.855Z,11.18
2023-10-20T06:50:36.445Z,11.48
2023-10-20T06:55:15.299Z,11.68
2023-10-20T06:59:29.461Z,10.68
2023-10-20T07:03:42.911Z,11.77
2023-10-20T07:07:55.897Z,12.13
2023-10-20T07:12:12.533Z,9.70
2023-10-20T07:16:27.813Z,11.20
2023-10-20T07:20:40.777Z,11.65
2023-10-20T07:24:53.368Z,11.63
2023-10-20T07:29:05.877Z,11.32
2023-10-20T07:33:27.055Z,11.57
2023-10-20T07:37:40.508Z,11.02
2023-10-20T07:41:54.474Z,12.10
2023-10-20T07:46:07.277Z,11.40
2023-10-20T07:50:21.310Z,13.32
2023-10-20T07:54:34.009Z,11.23
2023-10-20T07:58:47.097Z,11.52
2023-10-20T08:02:59.711Z,10.18
2023-10-20T08:07:12.591Z,11.73
2023-10-20T08:11:25.345Z,11.40
2023-10-20T08:15:40.559Z,12.13
2023-10-20T08:19:53.159Z,12.07
2023-10-20T08:24:08.824Z,12.00
2023-10-20T08:28:21.363Z,12.82
2023-10-20T08:32:37.064Z,10.77
2023-10-20T08:36:50.037Z,12.18
2023-10-20T08:41:13.014Z,11.68
2023-10-20T08:45:29.384Z,11.27
2023-10-20T08:49:42.484Z,10.70
2023-10-20T08:53:55.097Z,11.10
2023-10-20T08:58:08.610Z,10.23
2023-10-20T09:02:21.412Z,10.27
2023-10-20T09:06:34.091Z,10.55
2023-10-20T09:10:51.208Z,10.40
2023-10-20T09:15:03.883Z,9.40
2023-10-20T09:19:16.529Z,9.40
2023-10-20T09:23:29.316Z,9.05
2023-10-20T09:27:42.197Z,10.00
2023-10-20T09:31:55.720Z,9.35
2023-10-20T09:36:09.362Z,9.60
2023-10-20T09:40:23.804Z,8.77
2023-10-20T09:44:47.785Z,9.35
2023-10-20T09:49:02.730Z,9.50
2023-10-20T09:53:17.633Z,9.30
2023-10-20T09:57:30.631Z,9.13
2023-10-20T10:01:45.621Z,10.80
2023-10-20T10:05:58.182Z,7.35
2023-10-20T10:10:22.039Z,5.82
2023-10-20T10:14:34.863Z,4.55
2023-10-20T10:18:47.986Z,3.75
2023-10-20T10:23:08.496Z,3.67
2023-10-20T10:27:24.380Z,3.15
2023-10-20T10:31:37.855Z,2.40
2023-10-20T10:35:50.888Z,2.15
2023-10-20T10:40:16.153Z,2.08
2023-10-20T10:44:41.353Z,1.75
2023-10-20T10:48:54.773Z,1.60
2023-10-20T10:53:07.719Z,1.80
2023-10-20T10:57:20.266Z,1.60
2023-10-20T11:01:34.078Z,1.25
2023-10-20T11:05:47.424Z,4.15
2023-10-20T11:10:00.036Z,2.58
2023-10-20T11:14:13.360Z,2.95
2023-10-20T11:18:27.920Z,2.58
2023-10-20T11:22:44.810Z,2.60
2023-10-20T11:27:10.616Z,2.45
2023-10-20T11:31:24.711Z,2.10
2023-10-20T11:35:37.234Z,1.95
2023-10-20T11:39:55.856Z,2.58
2023-10-20T11:44:08.396Z,2.40
2023-10-20T11:48:21.632Z,2.10
2023-10-20T11:52:34.234Z,1.77
2023-10-20T11:56:46.942Z,2.20
2023-10-20T12:00:59.448Z,1.95
2023-10-20T12:05:12.166Z,1.90
2023-10-20T12:09:25.766Z,2.30
2023-10-20T12:13:38.984Z,1.98
2023-10-20T12:17:52.264Z,2.20
2023-10-20T12:22:04.874Z,2.20
2023-10-20T12:26:17.456Z,2.03
2023-10-20T12:30:30.000Z,1.70
2023-10-20T12:34:42.633Z,1.33
2023-10-20T12:38:55.266Z,1.13
2023-10-20T12:43:13.226Z,1.00
2023-10-20T12:47:27.448Z,0.75
2023-10-20T12:51:42.139Z,1.00
2023-10-20T12:55:55.144Z,0.98
2023-10-20T13:00:08.737Z,1.10
2023-10-20T13:04:21.336Z,1.10
2023-10-20T13:08:34.345Z,1.08
2023-10-20T13:12:46.858Z,1.00
2023-10-20T13:16:59.868Z,1.00
2023-10-20T13:21:13.856Z,0.80
2023-10-20T13:25:26.426Z,1.00
2023-10-20T13:29:39.918Z,1.05
2023-10-20T13:33:52.649Z,0.85
2023-10-20T13:38:17.588Z,1.15
2023-10-20T13:42:30.513Z,1.10
2023-10-20T13:46:43.013Z,0.93
2023-10-20T13:50:55.574Z,1.10
2023-10-20T13:55:09.530Z,1.00
2023-10-20T13:59:22.139Z,0.90
2023-10-20T14:03:35.420Z,0.80
2023-10-20T14:07:48.105Z,0.95
2023-10-20T14:12:00.782Z,0.90
2023-10-20T14:16:13.343Z,0.70
2023-10-20T14:20:25.857Z,0.90
2023-10-20T14:24:38.363Z,0.98
2023-10-20T14:28:50.867Z,0.77
2023-10-20T14:33:03.944Z,0.52
2023-10-20T14:37:16.750Z,0.63
2023-10-20T14:41:29.319Z,0.40
2023-10-20T14:45:41.884Z,0.60
2023-10-20T14:49:55.791Z,0.80
2023-10-20T14:54:08.332Z,0.60
2023-10-20T14:58:20.882Z,0.70
2023-10-20T15:02:34.071Z,0.35
2023-10-20T15:06:46.881Z,0.30
2023-10-20T15:10:59.967Z,0.40
2023-10-20T15:15:12.496Z,0.52
2023-10-20T15:19:24.976Z,0.40
2023-10-20T15:23:37.594Z,0.30
2023-10-20T15:27:51.405Z,0.45
2023-10-20T15:32:04.118Z,0.20
2023-10-20T15:36:18.458Z,0.47
2023-10-20T15:40:31.192Z,0.50
2023-10-20T15:44:43.805Z,0.30
2023-10-20T15:48:56.365Z,0.30
2023-10-20T15:53:10.957Z,0.40
2023-10-20T15:57:24.265Z,0.30
2023-10-20T16:01:36.864Z,0.40
2023-10-20T16:05:49.628Z,0.40
2023-10-20T16:10:02.204Z,0.40
2023-10-20T16:14:16.746Z,0.32
2023-10-20T16:18:29.732Z,0.40
2023-10-20T16:22:42.233Z,0.47
2023-10-20T16:26:54.901Z,0.40
2023-10-20T16:31:07.421Z,0.65
2023-10-20T16:35:20.059Z,0.40
2023-10-20T16:39:32.688Z,0.30
2023-10-20T16:43:45.387Z,0.28
2023-10-20T16:47:57.957Z,0.50
2023-10-20T16:52:11.224Z,0.30
2023-10-20T16:56:23.751Z,0.20
2023-10-20T17:00:36.246Z,0.60
2023-10-20T17:04:48.788Z,0.50
2023-10-20T17:09:01.356Z,0.32
2023-10-20T17:13:13.954Z,0.50
2023-10-20T17:17:27.057Z,0.40
2023-10-20T17:21:39.645Z,0.38
2023-10-20T17:25:54.478Z,0.47
2023-10-20T17:30:08.349Z,0.63
2023-10-20T17:34:20.955Z,0.40
2023-10-20T17:38:34.875Z,0.28
2023-10-20T17:42:47.668Z,0.50
2023-10-20T17:47:03.308Z,0.70
2023-10-20T17:51:15.852Z,0.50
2023-10-20T17:55:28.390Z,0.40
2023-10-20T17:59:40.904Z,0.40
2023-10-20T18:03:53.500Z,0.30
2023-10-20T18:08:06.282Z,0.52
2023-10-20T18:12:18.757Z,0.60
2023-10-20T18:16:33.471Z,0.70
2023-10-20T18:20:45.984Z,0.55
2023-10-20T18:24:58.581Z,0.85
2023-10-20T18:29:11.446Z,0.63
2023-10-20T18:33:30.358Z,0.52
2023-10-20T18:37:42.992Z,0.40
2023-10-20T18:41:55.573Z,0.57
2023-10-20T18:46:08.200Z,0.63
2023-10-20T18:50:23.439Z,0.50
2023-10-20T18:54:35.926Z,0.43
2023-10-20T18:58:48.385Z,0.50
2023-10-20T19:03:01.121Z,0.30
2023-10-20T19:07:13.777Z,0.43
2023-10-20T19:11:26.291Z,0.40
2023-10-20T19:15:39.019Z,0.43
2023-10-20T19:19:52.010Z,0.30
2023-10-20T19:24:06.291Z,0.30
2023-10-20T19:28:18.937Z,0.50
2023-10-20T19:32:33.345Z,0.30
2023-10-20T19:36:47.060Z,0.50
2023-10-20T19:41:00.215Z,0.30
2023-10-20T19:45:12.813Z,0.60
2023-10-20T19:49:25.313Z,0.40
2023-10-20T19:53:37.904Z,0.30
2023-10-20T19:57:50.486Z,0.43
2023-10-20T20:02:03.196Z,0.30
2023-10-20T20:06:15.969Z,0.30
2023-10-20T20:10:28.506Z,0.22
2023-10-20T20:14:41.038Z,0.45
2023-10-20T20:18:54.124Z,0.22
2023-10-20T20:23:06.682Z,0.45
2023-10-20T20:27:20.859Z,0.38
2023-10-20T20:31:33.637Z,0.30
2023-10-20T20:35:46.257Z,0.45
2023-10-20T20:39:58.995Z,0.80
2023-10-20T20:44:11.481Z,0.55
2023-10-20T20:48:24.229Z,0.60
2023-10-20T20:52:38.552Z,0.50
2023-10-20T20:56:52.489Z,0.68
2023-10-20T21:01:13.621Z,0.40
2023-10-20T21:05:26.126Z,0.50
2023-10-20T21:09:38.738Z,0.35
2023-10-20T21:13:54.272Z,0.60
2023-10-20T21:18:06.854Z,0.40
2023-10-20T21:22:19.338Z,0.65
2023-10-20T21:26:32.754Z,0.50
2023-10-20T21:30:45.324Z,0.60
2023-10-20T21:34:58.009Z,0.40
2023-10-20T21:39:14.396Z,0.60
2023-10-20T21:43:27.047Z,0.43
2023-10-20T21:47:39.625Z,0.40
2023-10-20T21:51:52.477Z,0.50
2023-10-20T21:56:07.952Z,0.32
2023-10-20T22:00:28.283Z,0.60
2023-10-20T22:04:41.981Z,0.40
2023-10-20T22:08:58.805Z,0.35
2023-10-20T22:13:11.530Z,0.20
2023-10-20T22:17:28.447Z,0.45
2023-10-20T22:21:41.171Z,0.50
2023-10-20T22:25:54.865Z,0.40
2023-10-20T22:30:08.290Z,0.40
2023-10-20T22:34:20.883Z,0.50
2023-10-20T22:38:33.405Z,0.40
2023-10-20T22:42:46.169Z,0.22
2023-10-20T22:46:58.637Z,0.45
2023-10-20T22:51:11.195Z,0.60
2023-10-20T22:55:23.712Z,0.30
2023-10-20T22:59:39.283Z,0.52
2023-10-20T23:03:51.936Z,0.30
2023-10-20T23:08:08.028Z,0.40
2023-10-20T23:12:20.542Z,0.20
2023-10-20T23:16:33.061Z,0.40
2023-10-20T23:20:45.620Z,0.38
2023-10-20T23:24:58.325Z,0.30
2023-10-20T23:29:10.794Z,0.40
2023-10-20T23:33:23.600Z,0.45
2023-10-20T23:37:37.037Z,0.38
2023-10-20T23:41:49.596Z,0.32
2023-10-20T23:46:02.176Z,0.40
2023-10-20T23:50:14.744Z,0.38
2023-10-20T23:54:27.478Z,0.30
2023-10-20T23:58:39.958Z,0.57
